createdAt,value
2018-09-24T00:01:20.372Z,12.20
2018-09-24T00:11:10.084Z,12.70
2018-09-24T00:16:04.901Z,11.60
2018-09-24T00:18:32.476Z,11.60
2018-09-24T00:20:59.955Z,11.60
2018-09-24T00:23:27.510Z,11.60
2018-09-24T00:25:55.034Z,11.80
2018-09-24T00:28:22.649Z,11.50
2018-09-24T00:30:50.110Z,11.80
2018-09-24T00:33:17.564Z,12.50
2018-09-24T00:35:45.048Z,11.60
2018-09-24T00:38:12.614Z,12.50
2018-09-24T00:40:40.140Z,11.80
2018-09-24T00:43:07.752Z,12.30
2018-09-24T00:52:57.964Z,12.00
2018-09-24T00:55:25.518Z,12.40
2018-09-24T01:02:47.992Z,11.60
2018-09-24T01:10:10.342Z,11.90
2018-09-24T01:12:37.892Z,11.70
2018-09-24T01:15:05.847Z,11.80
2018-09-24T01:17:33.341Z,11.90
2018-09-24T01:20:00.894Z,12.30
2018-09-24T01:22:28.434Z,11.50
2018-09-24T01:24:55.973Z,12.10
2018-09-24T01:27:23.503Z,11.90
2018-09-24T01:29:51.089Z,11.70
2018-09-24T01:32:18.599Z,11.70
2018-09-24T01:34:46.108Z,12.40
2018-09-24T01:37:13.590Z,11.60
2018-09-24T01:39:41.070Z,11.70
2018-09-24T01:42:08.559Z,11.30
2018-09-24T01:49:30.941Z,11.70
2018-09-24T01:54:27.893Z,11.40
2018-09-24T01:56:55.416Z,11.50
2018-09-24T01:59:22.880Z,11.20
2018-09-24T02:01:50.432Z,11.30
2018-09-24T02:04:17.944Z,11.20
2018-09-24T02:06:45.456Z,11.30
2018-09-24T02:09:13.000Z,11.40
2018-09-24T02:11:40.520Z,11.90
2018-09-24T02:21:30.401Z,11.60
2018-09-24T02:24:02.538Z,11.40
2018-09-24T02:26:30.065Z,11.20
2018-09-24T02:28:57.546Z,11.60
2018-09-24T02:31:25.030Z,11.80
2018-09-24T02:33:52.533Z,11.10
2018-09-24T02:36:20.105Z,11.30
2018-09-24T02:38:47.613Z,11.30
2018-09-24T02:43:42.567Z,11.40
2018-09-24T02:48:37.472Z,11.00
2018-09-24T02:51:05.048Z,10.80
2018-09-24T02:56:05.413Z,11.20
2018-09-24T02:58:32.892Z,11.50
2018-09-24T03:01:00.474Z,10.60
2018-09-24T03:03:27.991Z,10.90
2018-09-24T03:05:55.589Z,11.20
2018-09-24T03:10:50.569Z,10.80
2018-09-24T03:13:18.054Z,10.90
2018-09-24T03:25:37.155Z,10.70
2018-09-24T03:40:23.563Z,11.50
2018-09-24T03:42:51.077Z,11.00
2018-09-24T04:07:37.377Z,10.50
2018-09-24T04:12:44.054Z,10.50
2018-09-24T04:15:17.418Z,11.10
2018-09-24T04:17:50.531Z,10.50
2018-09-24T04:20:23.695Z,10.40
2018-09-24T04:22:56.810Z,10.70
2018-09-24T04:28:02.881Z,11.00
2018-09-24T04:30:36.012Z,11.00
2018-09-24T04:38:15.490Z,10.80
2018-09-24T04:48:27.677Z,10.20
2018-09-24T04:51:00.889Z,10.50
2018-09-24T04:56:07.268Z,10.80
2018-09-24T04:58:40.347Z,10.60
2018-09-24T05:01:13.777Z,11.40
2018-09-24T05:03:46.907Z,10.70
2018-09-24T05:06:20.146Z,10.10
2018-09-24T05:08:53.381Z,10.50
2018-09-24T05:16:32.893Z,11.80
2018-09-24T05:21:39.330Z,10.70
2018-09-24T05:24:12.540Z,10.60
2018-09-24T05:31:51.830Z,10.80
2018-09-24T05:34:25.027Z,11.70
2018-09-24T05:36:58.190Z,10.20
2018-09-24T05:42:04.479Z,10.70
2018-09-24T05:47:10.860Z,10.80
2018-09-24T05:49:44.051Z,10.60
2018-09-24T05:52:17.312Z,11.40
2018-09-24T05:54:50.512Z,11.30
2018-09-24T05:57:23.720Z,10.40
2018-09-24T05:59:56.892Z,10.90
2018-09-24T06:02:30.105Z,11.00
2018-09-24T06:05:03.291Z,11.00
2018-09-24T06:07:36.580Z,11.20
2018-09-24T06:10:10.056Z,10.90
2018-09-24T06:12:43.208Z,11.30
2018-09-24T06:17:49.478Z,11.80
2018-09-24T06:20:22.641Z,11.60
2018-09-24T06:22:55.748Z,11.40
2018-09-24T06:25:28.877Z,12.10
2018-09-24T06:28:02.183Z,11.90
2018-09-24T06:30:35.463Z,11.90
2018-09-24T06:33:08.716Z,11.50
2018-09-24T06:35:41.892Z,11.70
2018-09-24T06:38:15.059Z,12.00
2018-09-24T06:40:48.240Z,12.10
2018-09-24T06:45:54.473Z,11.90
2018-09-24T06:48:27.714Z,11.90
2018-09-24T06:51:00.847Z,11.90
2018-09-24T06:53:33.997Z,12.20
2018-09-24T06:56:07.286Z,12.00
2018-09-24T06:58:40.289Z,12.60
2018-09-24T07:01:13.675Z,12.40
2018-09-24T07:03:46.840Z,12.20
2018-09-24T07:06:20.175Z,12.40
2018-09-24T07:08:53.333Z,12.40
2018-09-24T07:11:26.837Z,12.60
2018-09-24T07:13:59.998Z,12.70
2018-09-24T07:16:33.288Z,13.00
2018-09-24T07:19:06.393Z,13.10
2018-09-24T07:21:39.645Z,13.30
2018-09-24T07:26:45.968Z,14.00
2018-09-24T07:29:19.145Z,14.30
2018-09-24T07:31:52.480Z,14.00
2018-09-24T07:34:25.628Z,14.70
2018-09-24T07:37:05.841Z,15.10
2018-09-24T07:39:39.057Z,14.80
2018-09-24T07:42:12.217Z,15.30
2018-09-24T07:44:45.447Z,15.40
2018-09-24T07:47:18.604Z,15.70
2018-09-24T07:52:24.851Z,15.30
2018-09-24T07:54:58.163Z,16.20
2018-09-24T07:57:31.332Z,15.80
2018-09-24T08:00:04.547Z,16.10
2018-09-24T08:05:10.913Z,16.30
2018-09-24T08:07:44.251Z,16.80
2018-09-24T08:10:17.401Z,16.80
2018-09-24T08:12:51.760Z,16.50
2018-09-24T08:15:24.812Z,17.30
2018-09-24T08:20:31.110Z,18.00
2018-09-24T08:23:04.312Z,18.10
2018-09-24T08:25:37.496Z,18.80
2018-09-24T08:28:10.940Z,18.40
2018-09-24T08:30:44.112Z,18.50
2018-09-24T08:33:17.240Z,18.70
2018-09-24T08:35:50.425Z,18.90
2018-09-24T08:40:56.595Z,19.40
2018-09-24T08:43:29.907Z,19.60
2018-09-24T08:48:36.161Z,19.70
2018-09-24T08:51:09.423Z,20.00
2018-09-24T08:53:42.736Z,20.30
2018-09-24T08:56:15.941Z,20.10
2018-09-24T08:58:49.172Z,19.70
2018-09-24T09:01:23.466Z,19.70
2018-09-24T09:03:56.577Z,19.70
2018-09-24T09:06:29.829Z,19.10
2018-09-24T09:14:09.492Z,18.80
2018-09-24T09:16:42.729Z,18.80
2018-09-24T09:19:15.862Z,18.80
2018-09-24T09:21:49.403Z,18.50
2018-09-24T09:26:55.883Z,19.70
2018-09-24T09:29:28.868Z,20.20
2018-09-24T09:32:02.041Z,21.00
2018-09-24T09:34:35.201Z,21.60
2018-09-24T09:39:41.641Z,22.50
2018-09-24T09:42:14.779Z,22.40
2018-09-24T09:44:47.979Z,22.40
2018-09-24T09:47:21.176Z,22.80
2018-09-24T09:49:55.360Z,22.80
2018-09-24T09:52:28.584Z,22.70
2018-09-24T09:55:01.820Z,22.20
2018-09-24T09:57:35.205Z,21.60
2018-09-24T10:00:09.203Z,22.10
2018-09-24T10:02:43.125Z,22.30
2018-09-24T10:05:16.282Z,22.30
2018-09-24T10:07:51.543Z,22.80
2018-09-24T10:10:25.089Z,23.60
2018-09-24T10:12:58.190Z,24.50
2018-09-24T10:15:31.548Z,24.70
2018-09-24T10:18:04.777Z,24.50
2018-09-24T10:20:37.817Z,24.00
2018-09-24T10:23:11.091Z,23.80
2018-09-24T10:25:44.527Z,24.80
2018-09-24T10:28:18.890Z,25.30
2018-09-24T10:30:52.399Z,25.90
2018-09-24T10:33:25.641Z,26.00
2018-09-24T10:35:59.165Z,26.50
2018-09-24T10:38:32.543Z,26.70
2018-09-24T10:46:13.115Z,25.90
2018-09-24T10:48:46.272Z,26.00
2018-09-24T10:51:19.520Z,25.70
2018-09-24T10:53:52.793Z,26.00
2018-09-24T10:56:25.949Z,26.00
2018-09-24T10:58:59.561Z,26.70
2018-09-24T11:01:32.785Z,26.90
2018-09-24T11:04:06.052Z,25.50
2018-09-24T11:06:39.180Z,24.60
2018-09-24T11:09:13.417Z,24.80
2018-09-24T11:11:47.589Z,25.20
2018-09-24T11:14:21.102Z,25.60
2018-09-24T11:16:54.395Z,26.30
2018-09-24T11:19:27.534Z,26.10
2018-09-24T11:22:00.895Z,26.40
2018-09-24T11:27:07.481Z,26.30
2018-09-24T11:32:14.151Z,26.70
2018-09-24T11:34:47.516Z,25.90
2018-09-24T11:37:20.733Z,25.40
2018-09-24T11:39:53.813Z,25.20
2018-09-24T11:42:26.909Z,24.70
2018-09-24T11:45:00.163Z,24.30
2018-09-24T11:47:33.424Z,23.80
2018-09-24T11:50:06.549Z,23.80
2018-09-24T11:52:39.783Z,23.40
2018-09-24T11:55:12.997Z,23.30
2018-09-24T12:00:19.604Z,22.40
2018-09-24T12:05:27.922Z,21.50
2018-09-24T12:08:01.222Z,20.90
2018-09-24T12:10:38.608Z,20.60
2018-09-24T12:13:12.675Z,20.60
2018-09-24T12:15:46.002Z,20.80
2018-09-24T12:18:19.162Z,20.80
2018-09-24T12:20:54.882Z,20.50
2018-09-24T12:23:28.553Z,20.20
2018-09-24T12:26:01.801Z,20.20
2018-09-24T12:28:35.118Z,20.30
2018-09-24T12:33:41.882Z,19.80
2018-09-24T12:38:48.176Z,19.40
2018-09-24T12:41:21.365Z,19.00
2018-09-24T12:43:54.657Z,18.90
2018-09-24T12:46:27.950Z,19.00
2018-09-24T12:49:01.102Z,18.90
2018-09-24T12:56:40.876Z,18.40
2018-09-24T12:59:14.179Z,18.40
2018-09-24T13:01:47.474Z,18.60
2018-09-24T13:04:20.641Z,19.00
2018-09-24T13:06:53.973Z,19.30
2018-09-24T13:09:27.259Z,19.20
2018-09-24T13:12:00.678Z,19.20
2018-09-24T13:14:33.882Z,19.40
2018-09-24T13:17:07.027Z,19.40
2018-09-24T13:19:40.198Z,19.50
2018-09-24T13:22:13.887Z,19.50
2018-09-24T13:24:47.133Z,19.80
2018-09-24T13:27:20.370Z,19.90
2018-09-24T13:29:53.545Z,20.20
2018-09-24T13:35:00.202Z,20.10
2018-09-24T13:37:33.390Z,20.10
2018-09-24T13:40:06.808Z,19.90
2018-09-24T13:42:39.926Z,19.80
2018-09-24T13:45:13.034Z,19.70
2018-09-24T13:47:46.571Z,20.10
2018-09-24T13:50:19.891Z,19.60
2018-09-24T13:52:53.182Z,19.50
2018-09-24T13:55:26.445Z,19.50
2018-09-24T13:58:00.318Z,19.10
2018-09-24T14:00:33.576Z,19.20
2018-09-24T14:03:06.752Z,19.20
2018-09-24T14:08:12.907Z,19.00
2018-09-24T14:10:46.110Z,18.80
2018-09-24T14:15:52.615Z,18.80
2018-09-24T14:18:25.822Z,19.70
2018-09-24T14:20:58.968Z,20.50
2018-09-24T14:23:32.212Z,20.40
2018-09-24T14:26:05.389Z,20.00
2018-09-24T14:28:38.592Z,19.40
2018-09-24T14:31:11.712Z,18.90
2018-09-24T14:33:44.863Z,18.60
2018-09-24T14:36:18.040Z,17.90
2018-09-24T14:38:51.285Z,17.70
2018-09-24T14:41:24.535Z,18.00
2018-09-24T14:43:57.675Z,18.10
2018-09-24T14:46:30.729Z,18.50
2018-09-24T14:49:03.950Z,18.50
2018-09-24T14:51:37.268Z,18.20
2018-09-24T14:54:10.544Z,17.70
2018-09-24T14:56:43.632Z,17.50
2018-09-24T15:06:59.441Z,16.90
2018-09-24T15:19:45.706Z,16.40
2018-09-24T15:24:52.398Z,16.20
2018-09-24T15:27:25.930Z,16.60
2018-09-24T15:29:59.165Z,16.20
2018-09-24T15:32:32.752Z,16.20
2018-09-24T15:35:06.138Z,16.40
2018-09-24T15:40:12.442Z,15.80
2018-09-24T15:47:52.689Z,15.90
2018-09-24T15:50:27.254Z,16.10
2018-09-24T15:55:33.712Z,15.90
2018-09-24T16:00:42.182Z,15.90
2018-09-24T16:03:16.152Z,15.80
2018-09-24T16:05:49.339Z,16.10
2018-09-24T16:08:24.422Z,16.10
2018-09-24T16:13:30.839Z,16.00
2018-09-24T16:16:04.124Z,15.80
2018-09-24T16:18:37.229Z,16.00
2018-09-24T16:21:11.058Z,15.80
2018-09-24T16:26:19.963Z,15.90
2018-09-24T16:28:53.260Z,15.80
2018-09-24T16:31:27.925Z,15.70
2018-09-24T16:34:01.600Z,15.50
2018-09-24T16:36:34.772Z,15.60
2018-09-24T16:41:41.213Z,15.50
2018-09-24T16:44:14.356Z,15.40
2018-09-24T16:46:47.773Z,15.50
2018-09-24T16:49:21.759Z,15.50
2018-09-24T16:53:19.577Z,15.50
2018-09-24T16:55:52.886Z,15.50
2018-09-24T16:58:26.775Z,15.60
2018-09-24T17:01:00.105Z,15.50
2018-09-24T17:03:33.445Z,15.50
2018-09-24T17:06:06.598Z,15.50
2018-09-24T17:08:39.923Z,15.40
2018-09-24T17:11:13.028Z,15.50
2018-09-24T17:13:46.225Z,15.40
2018-09-24T17:18:52.592Z,15.30
2018-09-24T17:21:25.858Z,15.30
2018-09-24T17:23:59.081Z,15.20
2018-09-24T17:26:32.271Z,15.20
2018-09-24T17:29:05.540Z,15.10
2018-09-24T17:31:39.422Z,15.00
2018-09-24T17:36:45.572Z,15.10
2018-09-24T17:39:18.942Z,15.00
2018-09-24T17:41:52.160Z,15.00
2018-09-24T17:44:25.392Z,14.90
2018-09-24T17:46:58.644Z,14.80
2018-09-24T17:49:32.198Z,14.90
2018-09-24T17:52:05.312Z,14.90
2018-09-24T17:54:38.300Z,14.90
2018-09-24T17:57:11.761Z,14.90
2018-09-24T17:59:45.103Z,14.90
2018-09-24T18:02:18.093Z,14.80
2018-09-24T18:04:51.381Z,14.80
2018-09-24T18:09:57.683Z,14.80
2018-09-24T18:12:30.872Z,14.70
2018-09-24T18:15:04.104Z,14.60
2018-09-24T18:22:43.812Z,14.40
2018-09-24T18:25:17.537Z,14.40
2018-09-24T18:27:50.743Z,14.30
2018-09-24T18:30:24.147Z,14.20
2018-09-24T18:32:57.635Z,14.20
2018-09-24T18:35:30.690Z,14.20
2018-09-24T18:38:04.094Z,14.30
2018-09-24T18:40:37.421Z,14.20
2018-09-24T18:43:10.629Z,14.10
2018-09-24T18:45:43.895Z,14.10
2018-09-24T18:48:17.805Z,14.00
2018-09-24T18:50:51.633Z,14.00
2018-09-24T18:53:25.015Z,13.90
2018-09-24T18:55:58.373Z,13.90
2018-09-24T18:58:31.545Z,13.90
2018-09-24T19:01:05.025Z,13.80
2018-09-24T19:03:38.244Z,13.60
2018-09-24T19:06:12.324Z,13.60
2018-09-24T19:08:45.587Z,13.50
2018-09-24T19:11:27.703Z,13.40
2018-09-24T19:13:52.370Z,13.40
2018-09-24T19:16:25.845Z,13.40
2018-09-24T19:18:59.185Z,13.40
2018-09-24T19:21:32.560Z,13.40
2018-09-24T19:24:05.841Z,13.70
2018-09-24T19:26:39.133Z,13.70
2018-09-24T19:29:12.229Z,13.70
2018-09-24T19:31:45.518Z,13.80
2018-09-24T19:34:19.560Z,13.70
2018-09-24T19:36:53.232Z,13.70
2018-09-24T19:39:26.413Z,13.70
2018-09-24T19:41:59.489Z,13.70
2018-09-24T19:44:32.907Z,13.70
2018-09-24T19:47:06.081Z,13.70
2018-09-24T19:52:12.910Z,13.50
2018-09-24T19:54:46.654Z,13.40
2018-09-24T19:57:20.179Z,13.20
2018-09-24T20:05:01.385Z,13.20
2018-09-24T20:07:34.500Z,13.10
2018-09-24T20:23:07.339Z,13.00
2018-09-24T20:25:40.484Z,12.70
2018-09-24T20:28:13.649Z,12.80
2018-09-24T20:30:46.787Z,12.80
2018-09-24T20:38:26.341Z,13.40
2018-09-24T20:46:05.816Z,13.20
2018-09-24T20:48:39.112Z,13.10
2018-09-24T20:51:12.337Z,12.90
2018-09-24T20:53:45.671Z,12.70
2018-09-24T20:56:19.066Z,12.70
2018-09-24T20:58:52.284Z,12.60
2018-09-24T21:14:30.010Z,12.50
2018-09-24T21:17:03.276Z,12.30
2018-09-24T21:19:36.725Z,12.30
2018-09-24T21:27:16.025Z,12.50
2018-09-24T21:29:49.218Z,12.40
2018-09-24T21:32:22.503Z,12.50
2018-09-24T21:34:55.848Z,12.40
2018-09-24T21:37:29.071Z,12.40
2018-09-24T21:40:02.349Z,12.30
2018-09-24T21:42:35.565Z,12.20
2018-09-24T21:45:08.761Z,12.10
2018-09-24T21:47:41.979Z,12.10
2018-09-24T21:50:15.206Z,12.10
2018-09-24T21:52:48.367Z,12.00
2018-09-24T21:55:21.544Z,11.90
2018-09-24T22:00:27.795Z,11.80
2018-09-24T22:03:01.486Z,11.80
2018-09-24T22:05:35.447Z,11.80
2018-09-24T22:08:08.808Z,11.70
2018-09-24T22:10:41.945Z,11.60
2018-09-24T22:13:15.065Z,11.60
2018-09-24T22:15:48.213Z,11.80
2018-09-24T22:18:21.581Z,11.80
2018-09-24T22:23:27.920Z,11.80
2018-09-24T22:26:01.257Z,11.80
2018-09-24T22:28:34.543Z,11.90
2018-09-24T22:36:13.971Z,11.90
2018-09-24T22:38:47.164Z,12.00
2018-09-24T22:41:20.292Z,11.90
2018-09-24T22:43:53.440Z,12.20
2018-09-24T22:46:27.248Z,12.40
2018-09-24T22:49:00.433Z,12.40
2018-09-24T22:51:34.797Z,12.70
2018-09-24T22:56:41.104Z,12.60
2018-09-24T22:59:14.327Z,12.70
2018-09-24T23:01:47.313Z,12.60
2018-09-24T23:04:20.617Z,12.30
2018-09-24T23:06:53.856Z,12.10
2018-09-24T23:09:27.126Z,12.30
2018-09-24T23:12:00.463Z,12.50
2018-09-24T23:14:33.672Z,12.50
2018-09-24T23:17:06.909Z,12.20
2018-09-24T23:21:04.481Z,12.20
2018-09-24T23:23:37.700Z,11.90
2018-09-24T23:26:11.421Z,11.80
2018-09-24T23:28:44.596Z,11.70
2018-09-24T23:31:17.667Z,11.60
2018-09-24T23:33:50.867Z,11.60
2018-09-24T23:36:24.005Z,11.50
2018-09-24T23:38:57.112Z,11.50
2018-09-24T23:41:30.132Z,11.50
2018-09-24T23:44:03.551Z,11.60
2018-09-24T23:46:36.808Z,11.90
2018-09-24T23:49:10.118Z,12.10
2018-09-24T23:51:43.439Z,12.10
2018-09-24T23:54:16.599Z,11.80
2018-09-24T23:56:49.711Z,11.70
2018-09-24T23:59:22.821Z,11.90
